sensor_id;sensor_type;location;lat;lon;timestamp;temperature;humidity
47168;DHT22;32931;47.778;17.806;2023-02-28T00:00:17;3.80;95.00
47168;DHT22;32931;47.778;17.806;2023-02-28T00:02:44;3.80;94.70
47168;DHT22;32931;47.778;17.806;2023-02-28T00:05:13;3.80;94.50
47168;DHT22;32931;47.778;17.806;2023-02-28T00:07:39;3.80;94.40
47168;DHT22;32931;47.778;17.806;2023-02-28T00:10:09;3.80;94.30
47168;DHT22;32931;47.778;17.806;2023-02-28T00:12:36;3.80;94.10
47168;DHT22;32931;47.778;17.806;2023-02-28T00:15:05;3.80;94.10
47168;DHT22;32931;47.778;17.806;2023-02-28T00:17:32;3.80;94.00
47168;DHT22;32931;47.778;17.806;2023-02-28T00:19:58;3.80;94.00
47168;DHT22;32931;47.778;17.806;2023-02-28T00:22:43;3.80;94.00
47168;DHT22;32931;47.778;17.806;2023-02-28T00:25:11;3.80;93.90
47168;DHT22;32931;47.778;17.806;2023-02-28T00:27:38;3.80;93.80
47168;DHT22;32931;47.778;17.806;2023-02-28T00:30:07;3.80;93.80
47168;DHT22;32931;47.778;17.806;2023-02-28T00:32:34;3.80;93.60
47168;DHT22;32931;47.778;17.806;2023-02-28T00:35:01;3.80;93.60
47168;DHT22;32931;47.778;17.806;2023-02-28T00:37:27;3.80;93.40
47168;DHT22;32931;47.778;17.806;2023-02-28T00:39:53;3.70;93.40
47168;DHT22;32931;47.778;17.806;2023-02-28T00:42:19;3.70;93.40
47168;DHT22;32931;47.778;17.806;2023-02-28T00:44:45;3.70;93.40
47168;DHT22;32931;47.778;17.806;2023-02-28T00:47:12;3.70;93.50
47168;DHT22;32931;47.778;17.806;2023-02-28T00:49:38;3.70;93.60
47168;DHT22;32931;47.778;17.806;2023-02-28T00:52:04;3.60;93.50
47168;DHT22;32931;47.778;17.806;2023-02-28T00:54:30;3.60;93.70
47168;DHT22;32931;47.778;17.806;2023-02-28T00:56:56;3.60;93.70
47168;DHT22;32931;47.778;17.806;2023-02-28T00:59:23;3.60;93.70
47168;DHT22;32931;47.778;17.806;2023-02-28T01:01:49;3.60;93.80
47168;DHT22;32931;47.778;17.806;2023-02-28T01:04:15;3.60;94.10
47168;DHT22;32931;47.778;17.806;2023-02-28T01:06:41;3.60;94.20
47168;DHT22;32931;47.778;17.806;2023-02-28T01:09:08;3.60;94.40
47168;DHT22;32931;47.778;17.806;2023-02-28T01:11:34;3.50;94.60
47168;DHT22;32931;47.778;17.806;2023-02-28T01:14:01;3.50;94.60
47168;DHT22;32931;47.778;17.806;2023-02-28T01:16:28;3.50;94.70
47168;DHT22;32931;47.778;17.806;2023-02-28T01:18:54;3.40;94.90
47168;DHT22;32931;47.778;17.806;2023-02-28T01:21:21;3.40;94.90
47168;DHT22;32931;47.778;17.806;2023-02-28T01:23:48;3.40;95.00
47168;DHT22;32931;47.778;17.806;2023-02-28T01:26:17;3.30;95.20
47168;DHT22;32931;47.778;17.806;2023-02-28T01:28:44;3.30;95.30
47168;DHT22;32931;47.778;17.806;2023-02-28T01:31:10;3.30;95.30
47168;DHT22;32931;47.778;17.806;2023-02-28T01:33:37;3.20;95.50
47168;DHT22;32931;47.778;17.806;2023-02-28T01:36:10;3.20;95.60
47168;DHT22;32931;47.778;17.806;2023-02-28T01:38:36;3.10;95.90
47168;DHT22;32931;47.778;17.806;2023-02-28T01:41:03;3.10;95.90
47168;DHT22;32931;47.778;17.806;2023-02-28T01:43:52;3.10;96.10
47168;DHT22;32931;47.778;17.806;2023-02-28T01:46:18;3.10;96.20
47168;DHT22;32931;47.778;17.806;2023-02-28T01:51:44;3.10;96.50
47168;DHT22;32931;47.778;17.806;2023-02-28T01:54:22;3.10;96.60
47168;DHT22;32931;47.778;17.806;2023-02-28T01:56:56;3.10;96.70
47168;DHT22;32931;47.778;17.806;2023-02-28T02:01:58;3.10;96.70
47168;DHT22;32931;47.778;17.806;2023-02-28T02:04:28;3.10;96.70
47168;DHT22;32931;47.778;17.806;2023-02-28T02:06:58;3.10;96.80
47168;DHT22;32931;47.778;17.806;2023-02-28T02:09:25;3.00;96.70
47168;DHT22;32931;47.778;17.806;2023-02-28T02:11:51;3.00;96.70
47168;DHT22;32931;47.778;17.806;2023-02-28T02:14:43;3.00;96.80
47168;DHT22;32931;47.778;17.806;2023-02-28T02:17:37;3.00;96.90
47168;DHT22;32931;47.778;17.806;2023-02-28T02:23:23;3.00;97.10
47168;DHT22;32931;47.778;17.806;2023-02-28T02:36:38;3.00;97.20
47168;DHT22;32931;47.778;17.806;2023-02-28T02:39:13;3.00;97.20
47168;DHT22;32931;47.778;17.806;2023-02-28T02:41:52;3.00;97.30
47168;DHT22;32931;47.778;17.806;2023-02-28T02:44:30;3.00;97.40
47168;DHT22;32931;47.778;17.806;2023-02-28T02:47:08;2.90;97.30
47168;DHT22;32931;47.778;17.806;2023-02-28T02:49:36;2.90;97.30
47168;DHT22;32931;47.778;17.806;2023-02-28T02:52:08;2.90;97.60
47168;DHT22;32931;47.778;17.806;2023-02-28T02:54:37;2.90;97.70
47168;DHT22;32931;47.778;17.806;2023-02-28T02:57:08;2.90;97.60
47168;DHT22;32931;47.778;17.806;2023-02-28T02:59:39;2.90;97.60
47168;DHT22;32931;47.778;17.806;2023-02-28T03:02:08;2.90;97.70
47168;DHT22;32931;47.778;17.806;2023-02-28T03:04:42;2.90;97.80
47168;DHT22;32931;47.778;17.806;2023-02-28T03:07:09;2.80;97.90
47168;DHT22;32931;47.778;17.806;2023-02-28T03:09:35;2.80;98.00
47168;DHT22;32931;47.778;17.806;2023-02-28T03:12:02;2.70;98.30
47168;DHT22;32931;47.778;17.806;2023-02-28T03:17:44;2.80;98.60
47168;DHT22;32931;47.778;17.806;2023-02-28T03:20:40;2.70;98.70
47168;DHT22;32931;47.778;17.806;2023-02-28T03:23:32;2.70;98.70
47168;DHT22;32931;47.778;17.806;2023-02-28T03:26:07;2.70;98.60
47168;DHT22;32931;47.778;17.806;2023-02-28T03:29:20;2.70;98.50
47168;DHT22;32931;47.778;17.806;2023-02-28T03:32:17;2.70;98.80
47168;DHT22;32931;47.778;17.806;2023-02-28T03:34:56;2.60;98.50
47168;DHT22;32931;47.778;17.806;2023-02-28T03:37:25;2.60;98.40
47168;DHT22;32931;47.778;17.806;2023-02-28T03:40:00;2.60;98.50
47168;DHT22;32931;47.778;17.806;2023-02-28T03:42:30;2.60;98.60
47168;DHT22;32931;47.778;17.806;2023-02-28T03:45:08;2.50;98.70
47168;DHT22;32931;47.778;17.806;2023-02-28T03:47:41;2.50;98.90
47168;DHT22;32931;47.778;17.806;2023-02-28T03:50:20;2.50;98.90
47168;DHT22;32931;47.778;17.806;2023-02-28T03:52:58;2.50;99.10
47168;DHT22;32931;47.778;17.806;2023-02-28T03:55:32;2.50;99.30
47168;DHT22;32931;47.778;17.806;2023-02-28T04:01:00;2.60;99.60
47168;DHT22;32931;47.778;17.806;2023-02-28T04:03:37;2.60;99.50
47168;DHT22;32931;47.778;17.806;2023-02-28T04:06:05;2.60;99.50
47168;DHT22;32931;47.778;17.806;2023-02-28T04:08:33;2.60;99.40
47168;DHT22;32931;47.778;17.806;2023-02-28T04:11:04;2.60;99.70
47168;DHT22;32931;47.778;17.806;2023-02-28T04:13:32;2.60;99.80
47168;DHT22;32931;47.778;17.806;2023-02-28T04:15:58;2.60;99.80
47168;DHT22;32931;47.778;17.806;2023-02-28T04:18:24;2.70;99.80
47168;DHT22;32931;47.778;17.806;2023-02-28T04:20:51;2.60;99.70
47168;DHT22;32931;47.778;17.806;2023-02-28T04:23:17;2.70;99.80
47168;DHT22;32931;47.778;17.806;2023-02-28T04:25:43;2.70;99.80
47168;DHT22;32931;47.778;17.806;2023-02-28T04:28:09;2.60;99.80
47168;DHT22;32931;47.778;17.806;2023-02-28T04:30:36;2.60;99.80
47168;DHT22;32931;47.778;17.806;2023-02-28T04:33:03;2.60;99.90
47168;DHT22;32931;47.778;17.806;2023-02-28T04:35:29;2.60;99.90
47168;DHT22;32931;47.778;17.806;2023-02-28T04:37:55;2.60;99.90
47168;DHT22;32931;47.778;17.806;2023-02-28T04:40:21;2.60;99.90
47168;DHT22;32931;47.778;17.806;2023-02-28T04:42:47;2.60;99.90
47168;DHT22;32931;47.778;17.806;2023-02-28T04:45:13;2.60;99.90
47168;DHT22;32931;47.778;17.806;2023-02-28T04:47:39;2.50;99.90
47168;DHT22;32931;47.778;17.806;2023-02-28T04:50:06;2.50;99.90
47168;DHT22;32931;47.778;17.806;2023-02-28T04:52:32;2.50;99.90
47168;DHT22;32931;47.778;17.806;2023-02-28T04:54:58;2.60;99.90
47168;DHT22;32931;47.778;17.806;2023-02-28T04:57:24;2.50;99.90
47168;DHT22;32931;47.778;17.806;2023-02-28T04:59:50;2.50;99.90
47168;DHT22;32931;47.778;17.806;2023-02-28T05:02:17;2.50;99.90
47168;DHT22;32931;47.778;17.806;2023-02-28T05:04:43;2.50;99.90
47168;DHT22;32931;47.778;17.806;2023-02-28T05:07:09;2.50;99.90
47168;DHT22;32931;47.778;17.806;2023-02-28T05:09:35;2.50;99.90
47168;DHT22;32931;47.778;17.806;2023-02-28T05:12:02;2.50;99.90
47168;DHT22;32931;47.778;17.806;2023-02-28T05:14:28;2.60;99.90
47168;DHT22;32931;47.778;17.806;2023-02-28T05:16:54;2.60;99.90
47168;DHT22;32931;47.778;17.806;2023-02-28T05:19:20;2.60;99.90
47168;DHT22;32931;47.778;17.806;2023-02-28T05:21:54;2.70;99.90
47168;DHT22;32931;47.778;17.806;2023-02-28T05:24:21;2.70;99.90
47168;DHT22;32931;47.778;17.806;2023-02-28T05:26:51;2.70;99.90
47168;DHT22;32931;47.778;17.806;2023-02-28T05:29:18;2.70;99.90
47168;DHT22;32931;47.778;17.806;2023-02-28T05:31:45;2.80;99.90
47168;DHT22;32931;47.778;17.806;2023-02-28T05:34:11;2.80;99.90
47168;DHT22;32931;47.778;17.806;2023-02-28T05:36:38;2.80;99.90
47168;DHT22;32931;47.778;17.806;2023-02-28T05:39:06;2.80;99.90
47168;DHT22;32931;47.778;17.806;2023-02-28T05:41:33;2.80;99.90
47168;DHT22;32931;47.778;17.806;2023-02-28T05:43:59;2.80;99.90
47168;DHT22;32931;47.778;17.806;2023-02-28T05:46:26;2.80;99.90
47168;DHT22;32931;47.778;17.806;2023-02-28T05:48:52;2.80;99.90
47168;DHT22;32931;47.778;17.806;2023-02-28T05:51:18;2.80;99.90
47168;DHT22;32931;47.778;17.806;2023-02-28T05:53:45;2.80;99.90
47168;DHT22;32931;47.778;17.806;2023-02-28T05:56:11;2.90;99.90
47168;DHT22;32931;47.778;17.806;2023-02-28T05:58:37;2.90;99.90
47168;DHT22;32931;47.778;17.806;2023-02-28T06:01:23;2.90;99.90
47168;DHT22;32931;47.778;17.806;2023-02-28T06:03:49;2.90;99.90
47168;DHT22;32931;47.778;17.806;2023-02-28T06:06:16;2.90;99.90
47168;DHT22;32931;47.778;17.806;2023-02-28T06:08:42;2.90;99.90
47168;DHT22;32931;47.778;17.806;2023-02-28T06:11:10;2.90;99.90
47168;DHT22;32931;47.778;17.806;2023-02-28T06:13:36;3.00;99.90
47168;DHT22;32931;47.778;17.806;2023-02-28T06:16:03;3.00;99.90
47168;DHT22;32931;47.778;17.806;2023-02-28T06:18:29;3.00;99.90
47168;DHT22;32931;47.778;17.806;2023-02-28T06:20:56;3.10;99.90
47168;DHT22;32931;47.778;17.806;2023-02-28T06:23:22;3.10;99.90
47168;DHT22;32931;47.778;17.806;2023-02-28T06:25:48;3.10;99.90
47168;DHT22;32931;47.778;17.806;2023-02-28T06:28:15;3.10;99.90
47168;DHT22;32931;47.778;17.806;2023-02-28T06:30:41;3.10;99.90
47168;DHT22;32931;47.778;17.806;2023-02-28T06:33:07;3.20;99.90
47168;DHT22;32931;47.778;17.806;2023-02-28T06:35:33;3.20;99.90
47168;DHT22;32931;47.778;17.806;2023-02-28T06:38:00;3.20;99.90
47168;DHT22;32931;47.778;17.806;2023-02-28T06:40:26;3.30;99.90
47168;DHT22;32931;47.778;17.806;2023-02-28T06:42:52;3.30;99.90
47168;DHT22;32931;47.778;17.806;2023-02-28T06:45:18;3.40;99.90
47168;DHT22;32931;47.778;17.806;2023-02-28T06:47:44;3.40;99.90
47168;DHT22;32931;47.778;17.806;2023-02-28T06:50:12;3.40;99.90
47168;DHT22;32931;47.778;17.806;2023-02-28T06:52:39;3.50;99.90
47168;DHT22;32931;47.778;17.806;2023-02-28T06:55:06;3.50;99.90
47168;DHT22;32931;47.778;17.806;2023-02-28T06:57:35;3.60;99.90
47168;DHT22;32931;47.778;17.806;2023-02-28T07:00:05;3.60;99.90
47168;DHT22;32931;47.778;17.806;2023-02-28T07:02:34;3.60;99.90
47168;DHT22;32931;47.778;17.806;2023-02-28T07:05:00;3.60;99.90
47168;DHT22;32931;47.778;17.806;2023-02-28T07:07:27;3.60;99.90
47168;DHT22;32931;47.778;17.806;2023-02-28T07:09:53;3.60;99.90
47168;DHT22;32931;47.778;17.806;2023-02-28T07:12:19;3.70;99.90
47168;DHT22;32931;47.778;17.806;2023-02-28T07:14:45;3.70;99.90
47168;DHT22;32931;47.778;17.806;2023-02-28T07:17:11;3.70;99.90
47168;DHT22;32931;47.778;17.806;2023-02-28T07:19:40;3.70;99.90
47168;DHT22;32931;47.778;17.806;2023-02-28T07:22:07;3.70;99.90
47168;DHT22;32931;47.778;17.806;2023-02-28T07:24:33;3.70;99.90
47168;DHT22;32931;47.778;17.806;2023-02-28T07:26:59;3.70;99.90
47168;DHT22;32931;47.778;17.806;2023-02-28T07:29:26;3.60;99.90
47168;DHT22;32931;47.778;17.806;2023-02-28T07:31:52;3.60;99.90
47168;DHT22;32931;47.778;17.806;2023-02-28T07:34:20;3.60;99.90
47168;DHT22;32931;47.778;17.806;2023-02-28T07:36:46;3.70;99.90
47168;DHT22;32931;47.778;17.806;2023-02-28T07:39:12;3.60;99.90
47168;DHT22;32931;47.778;17.806;2023-02-28T07:41:38;3.60;99.90
47168;DHT22;32931;47.778;17.806;2023-02-28T07:44:10;3.70;99.90
47168;DHT22;32931;47.778;17.806;2023-02-28T07:46:37;3.70;99.90
47168;DHT22;32931;47.778;17.806;2023-02-28T07:49:03;3.70;99.90
47168;DHT22;32931;47.778;17.806;2023-02-28T07:51:30;3.70;99.90
47168;DHT22;32931;47.778;17.806;2023-02-28T07:53:57;3.70;99.90
47168;DHT22;32931;47.778;17.806;2023-02-28T07:56:23;3.70;99.90
47168;DHT22;32931;47.778;17.806;2023-02-28T07:58:49;3.80;99.90
47168;DHT22;32931;47.778;17.806;2023-02-28T08:01:16;3.80;99.90
47168;DHT22;32931;47.778;17.806;2023-02-28T08:03:43;3.80;99.90
47168;DHT22;32931;47.778;17.806;2023-02-28T08:06:17;3.90;99.90
47168;DHT22;32931;47.778;17.806;2023-02-28T08:08:44;3.90;99.90
47168;DHT22;32931;47.778;17.806;2023-02-28T08:11:10;4.00;99.90
47168;DHT22;32931;47.778;17.806;2023-02-28T08:13:36;4.00;99.90
47168;DHT22;32931;47.778;17.806;2023-02-28T08:16:02;4.10;99.80
47168;DHT22;32931;47.778;17.806;2023-02-28T08:18:29;4.10;99.50
47168;DHT22;32931;47.778;17.806;2023-02-28T08:20:55;4.20;99.20
47168;DHT22;32931;47.778;17.806;2023-02-28T08:23:22;4.20;98.90
47168;DHT22;32931;47.778;17.806;2023-02-28T08:25:55;4.10;98.70
47168;DHT22;32931;47.778;17.806;2023-02-28T08:28:22;4.20;98.80
47168;DHT22;32931;47.778;17.806;2023-02-28T08:30:48;4.20;99.00
47168;DHT22;32931;47.778;17.806;2023-02-28T08:33:14;4.30;98.90
47168;DHT22;32931;47.778;17.806;2023-02-28T08:35:41;4.30;98.40
47168;DHT22;32931;47.778;17.806;2023-02-28T08:38:07;4.30;98.40
47168;DHT22;32931;47.778;17.806;2023-02-28T08:40:33;4.30;98.50
47168;DHT22;32931;47.778;17.806;2023-02-28T08:42:59;4.40;98.30
47168;DHT22;32931;47.778;17.806;2023-02-28T08:45:26;4.40;98.30
47168;DHT22;32931;47.778;17.806;2023-02-28T08:47:54;4.40;98.40
47168;DHT22;32931;47.778;17.806;2023-02-28T08:50:21;4.50;98.10
47168;DHT22;32931;47.778;17.806;2023-02-28T08:52:48;4.50;98.10
47168;DHT22;32931;47.778;17.806;2023-02-28T08:55:14;4.60;98.00
47168;DHT22;32931;47.778;17.806;2023-02-28T08:57:41;4.60;97.70
47168;DHT22;32931;47.778;17.806;2023-02-28T09:00:07;4.60;97.20
47168;DHT22;32931;47.778;17.806;2023-02-28T09:02:34;4.60;97.20
47168;DHT22;32931;47.778;17.806;2023-02-28T09:05:00;4.60;97.10
47168;DHT22;32931;47.778;17.806;2023-02-28T09:07:26;4.70;97.10
47168;DHT22;32931;47.778;17.806;2023-02-28T09:09:52;4.70;97.00
47168;DHT22;32931;47.778;17.806;2023-02-28T09:12:23;4.80;96.90
47168;DHT22;32931;47.778;17.806;2023-02-28T09:14:50;4.90;97.00
47168;DHT22;32931;47.778;17.806;2023-02-28T09:17:17;5.00;96.90
47168;DHT22;32931;47.778;17.806;2023-02-28T09:19:43;5.00;96.70
47168;DHT22;32931;47.778;17.806;2023-02-28T09:22:11;5.10;96.40
47168;DHT22;32931;47.778;17.806;2023-02-28T09:24:37;5.20;96.20
47168;DHT22;32931;47.778;17.806;2023-02-28T09:27:04;5.30;96.00
47168;DHT22;32931;47.778;17.806;2023-02-28T09:29:32;5.30;95.50
47168;DHT22;32931;47.778;17.806;2023-02-28T09:31:59;5.40;95.20
47168;DHT22;32931;47.778;17.806;2023-02-28T09:34:26;5.30;94.90
47168;DHT22;32931;47.778;17.806;2023-02-28T09:36:52;5.40;95.10
47168;DHT22;32931;47.778;17.806;2023-02-28T09:39:22;5.40;94.70
47168;DHT22;32931;47.778;17.806;2023-02-28T09:41:51;5.40;94.60
47168;DHT22;32931;47.778;17.806;2023-02-28T09:44:29;5.50;94.50
47168;DHT22;32931;47.778;17.806;2023-02-28T09:49:47;5.60;93.00
47168;DHT22;32931;47.778;17.806;2023-02-28T09:52:17;5.60;93.80
47168;DHT22;32931;47.778;17.806;2023-02-28T09:54:45;5.60;93.30
47168;DHT22;32931;47.778;17.806;2023-02-28T09:57:32;5.70;93.80
47168;DHT22;32931;47.778;17.806;2023-02-28T10:05:52;5.90;92.90
47168;DHT22;32931;47.778;17.806;2023-02-28T10:08:25;6.00;92.80
47168;DHT22;32931;47.778;17.806;2023-02-28T10:11:02;6.10;92.40
47168;DHT22;32931;47.778;17.806;2023-02-28T10:16:25;6.40;91.80
47168;DHT22;32931;47.778;17.806;2023-02-28T10:21:44;6.40;91.70
47168;DHT22;32931;47.778;17.806;2023-02-28T10:26:48;6.60;90.20
47168;DHT22;32931;47.778;17.806;2023-02-28T10:29:15;6.50;91.00
47168;DHT22;32931;47.778;17.806;2023-02-28T10:31:41;6.60;91.20
47168;DHT22;32931;47.778;17.806;2023-02-28T10:34:08;6.70;91.30
47168;DHT22;32931;47.778;17.806;2023-02-28T10:36:37;6.70;90.80
47168;DHT22;32931;47.778;17.806;2023-02-28T10:39:33;6.80;90.80
47168;DHT22;32931;47.778;17.806;2023-02-28T10:42:00;6.90;90.20
47168;DHT22;32931;47.778;17.806;2023-02-28T10:44:26;7.00;90.50
47168;DHT22;32931;47.778;17.806;2023-02-28T10:46:52;7.00;90.20
47168;DHT22;32931;47.778;17.806;2023-02-28T10:49:24;7.00;89.90
47168;DHT22;32931;47.778;17.806;2023-02-28T10:51:56;7.10;89.20
47168;DHT22;32931;47.778;17.806;2023-02-28T10:54:30;7.10;89.00
47168;DHT22;32931;47.778;17.806;2023-02-28T10:57:14;7.10;88.80
47168;DHT22;32931;47.778;17.806;2023-02-28T10:59:41;7.20;88.70
47168;DHT22;32931;47.778;17.806;2023-02-28T11:02:36;7.20;88.50
47168;DHT22;32931;47.778;17.806;2023-02-28T11:05:30;7.20;87.70
47168;DHT22;32931;47.778;17.806;2023-02-28T11:08:14;7.30;85.00
47168;DHT22;32931;47.778;17.806;2023-02-28T11:10:54;7.30;86.80
47168;DHT22;32931;47.778;17.806;2023-02-28T11:13:24;7.30;88.80
47168;DHT22;32931;47.778;17.806;2023-02-28T11:15:53;7.30;88.10
47168;DHT22;32931;47.778;17.806;2023-02-28T11:21:05;7.50;86.30
47168;DHT22;32931;47.778;17.806;2023-02-28T11:23:34;7.50;87.90
47168;DHT22;32931;47.778;17.806;2023-02-28T11:26:04;7.50;86.30
47168;DHT22;32931;47.778;17.806;2023-02-28T11:28:41;7.50;86.60
47168;DHT22;32931;47.778;17.806;2023-02-28T11:33:55;7.50;85.70
47168;DHT22;32931;47.778;17.806;2023-02-28T11:36:23;7.50;85.20
47168;DHT22;32931;47.778;17.806;2023-02-28T11:38:59;7.60;86.90
47168;DHT22;32931;47.778;17.806;2023-02-28T11:44:41;7.60;84.00
47168;DHT22;32931;47.778;17.806;2023-02-28T12:16:49;7.80;80.30
47168;DHT22;32931;47.778;17.806;2023-02-28T12:27:17;8.20;80.40
47168;DHT22;32931;47.778;17.806;2023-02-28T12:29:49;8.30;80.20
47168;DHT22;32931;47.778;17.806;2023-02-28T12:32:22;8.40;79.80
47168;DHT22;32931;47.778;17.806;2023-02-28T12:34:56;8.50;79.60
47168;DHT22;32931;47.778;17.806;2023-02-28T12:37:29;8.70;79.60
47168;DHT22;32931;47.778;17.806;2023-02-28T12:40:04;8.80;79.10
47168;DHT22;32931;47.778;17.806;2023-02-28T12:42:36;8.70;78.90
47168;DHT22;32931;47.778;17.806;2023-02-28T12:45:10;8.80;78.80
47168;DHT22;32931;47.778;17.806;2023-02-28T12:47:40;8.80;78.20
47168;DHT22;32931;47.778;17.806;2023-02-28T12:50:10;8.90;78.20
47168;DHT22;32931;47.778;17.806;2023-02-28T12:58:20;9.10;77.50
47168;DHT22;32931;47.778;17.806;2023-02-28T13:09:12;9.20;76.20
47168;DHT22;32931;47.778;17.806;2023-02-28T13:14:29;9.20;76.90
47168;DHT22;32931;47.778;17.806;2023-02-28T13:17:20;9.20;75.90
47168;DHT22;32931;47.778;17.806;2023-02-28T13:19:57;9.20;78.20
47168;DHT22;32931;47.778;17.806;2023-02-28T13:28:10;9.60;73.40
47168;DHT22;32931;47.778;17.806;2023-02-28T13:36:07;10.20;75.40
47168;DHT22;32931;47.778;17.806;2023-02-28T13:38:36;10.40;74.30
47168;DHT22;32931;47.778;17.806;2023-02-28T13:41:44;10.50;75.00
47168;DHT22;32931;47.778;17.806;2023-02-28T13:44:22;10.50;72.50
47168;DHT22;32931;47.778;17.806;2023-02-28T13:54:45;10.30;72.70
47168;DHT22;32931;47.778;17.806;2023-02-28T13:57:40;10.30;72.20
47168;DHT22;32931;47.778;17.806;2023-02-28T14:06:17;10.20;70.60
47168;DHT22;32931;47.778;17.806;2023-02-28T14:11:34;10.40;70.90
47168;DHT22;32931;47.778;17.806;2023-02-28T14:14:03;10.50;73.00
47168;DHT22;32931;47.778;17.806;2023-02-28T14:16:45;10.80;72.70
47168;DHT22;32931;47.778;17.806;2023-02-28T14:33:31;11.80;68.70
47168;DHT22;32931;47.778;17.806;2023-02-28T14:36:26;12.10;67.80
47168;DHT22;32931;47.778;17.806;2023-02-28T14:38:57;12.30;67.60
47168;DHT22;32931;47.778;17.806;2023-02-28T14:41:32;12.60;68.70
47168;DHT22;32931;47.778;17.806;2023-02-28T14:44:03;12.90;66.80
47168;DHT22;32931;47.778;17.806;2023-02-28T14:46:40;13.20;68.80
47168;DHT22;32931;47.778;17.806;2023-02-28T14:49:27;13.60;67.60
47168;DHT22;32931;47.778;17.806;2023-02-28T14:52:20;13.60;63.20
47168;DHT22;32931;47.778;17.806;2023-02-28T14:54:52;13.60;62.90
47168;DHT22;32931;47.778;17.806;2023-02-28T15:00:31;13.00;64.80
47168;DHT22;32931;47.778;17.806;2023-02-28T15:02:49;12.60;63.70
47168;DHT22;32931;47.778;17.806;2023-02-28T15:08:06;12.30;65.00
47168;DHT22;32931;47.778;17.806;2023-02-28T15:10:33;12.40;65.20
47168;DHT22;32931;47.778;17.806;2023-02-28T15:20:51;13.10;61.90
47168;DHT22;32931;47.778;17.806;2023-02-28T15:23:18;13.10;64.90
47168;DHT22;32931;47.778;17.806;2023-02-28T15:25:46;13.00;64.00
47168;DHT22;32931;47.778;17.806;2023-02-28T15:28:16;13.10;64.70
47168;DHT22;32931;47.778;17.806;2023-02-28T15:31:01;13.00;64.00
47168;DHT22;32931;47.778;17.806;2023-02-28T15:33:30;12.60;61.80
47168;DHT22;32931;47.778;17.806;2023-02-28T15:36:14;12.20;63.50
47168;DHT22;32931;47.778;17.806;2023-02-28T15:38:40;11.90;63.00
47168;DHT22;32931;47.778;17.806;2023-02-28T15:41:30;11.50;63.00
47168;DHT22;32931;47.778;17.806;2023-02-28T15:44:28;11.20;63.40
47168;DHT22;32931;47.778;17.806;2023-02-28T15:47:06;10.90;64.70
47168;DHT22;32931;47.778;17.806;2023-02-28T15:49:39;10.60;66.30
47168;DHT22;32931;47.778;17.806;2023-02-28T15:52:14;10.40;67.00
47168;DHT22;32931;47.778;17.806;2023-02-28T15:54:41;10.20;67.80
47168;DHT22;32931;47.778;17.806;2023-02-28T15:57:15;10.00;68.60
47168;DHT22;32931;47.778;17.806;2023-02-28T15:59:55;9.80;68.60
47168;DHT22;32931;47.778;17.806;2023-02-28T16:02:31;9.60;69.00
47168;DHT22;32931;47.778;17.806;2023-02-28T16:05:19;9.50;69.70
47168;DHT22;32931;47.778;17.806;2023-02-28T16:07:46;9.30;69.60
47168;DHT22;32931;47.778;17.806;2023-02-28T16:10:14;9.10;71.10
47168;DHT22;32931;47.778;17.806;2023-02-28T16:12:41;9.00;72.30
47168;DHT22;32931;47.778;17.806;2023-02-28T16:15:19;8.90;72.10
47168;DHT22;32931;47.778;17.806;2023-02-28T16:17:46;8.80;72.40
47168;DHT22;32931;47.778;17.806;2023-02-28T16:22:43;8.60;72.70
47168;DHT22;32931;47.778;17.806;2023-02-28T16:25:17;8.50;73.00
47168;DHT22;32931;47.778;17.806;2023-02-28T16:27:46;8.40;73.00
47168;DHT22;32931;47.778;17.806;2023-02-28T16:30:21;8.30;73.90
47168;DHT22;32931;47.778;17.806;2023-02-28T16:32:49;8.20;73.70
47168;DHT22;32931;47.778;17.806;2023-02-28T16:35:17;8.10;74.10
47168;DHT22;32931;47.778;17.806;2023-02-28T16:37:44;8.00;74.30
47168;DHT22;32931;47.778;17.806;2023-02-28T16:40:17;7.90;74.70
47168;DHT22;32931;47.778;17.806;2023-02-28T16:42:46;7.80;74.90
47168;DHT22;32931;47.778;17.806;2023-02-28T16:45:24;7.70;75.40
47168;DHT22;32931;47.778;17.806;2023-02-28T16:47:50;7.50;75.30
47168;DHT22;32931;47.778;17.806;2023-02-28T16:50:28;7.40;75.70
47168;DHT22;32931;47.778;17.806;2023-02-28T16:52:55;7.20;76.10
47168;DHT22;32931;47.778;17.806;2023-02-28T16:55:23;7.10;76.30
47168;DHT22;32931;47.778;17.806;2023-02-28T16:58:00;7.00;76.70
47168;DHT22;32931;47.778;17.806;2023-02-28T17:00:28;6.90;77.10
47168;DHT22;32931;47.778;17.806;2023-02-28T17:02:55;6.70;77.00
47168;DHT22;32931;47.778;17.806;2023-02-28T17:05:22;6.60;77.30
47168;DHT22;32931;47.778;17.806;2023-02-28T17:07:49;6.50;77.40
47168;DHT22;32931;47.778;17.806;2023-02-28T17:10:24;6.40;77.80
47168;DHT22;32931;47.778;17.806;2023-02-28T17:12:51;6.40;78.10
47168;DHT22;32931;47.778;17.806;2023-02-28T17:15:18;6.30;78.60
47168;DHT22;32931;47.778;17.806;2023-02-28T17:17:46;6.10;78.50
47168;DHT22;32931;47.778;17.806;2023-02-28T17:20:15;6.00;78.90
47168;DHT22;32931;47.778;17.806;2023-02-28T17:22:41;5.90;79.70
47168;DHT22;32931;47.778;17.806;2023-02-28T17:25:09;5.80;79.60
47168;DHT22;32931;47.778;17.806;2023-02-28T17:27:36;5.70;79.90
47168;DHT22;32931;47.778;17.806;2023-02-28T17:30:24;5.60;79.90
47168;DHT22;32931;47.778;17.806;2023-02-28T17:32:53;5.50;80.60
47168;DHT22;32931;47.778;17.806;2023-02-28T17:35:20;5.40;80.60
47168;DHT22;32931;47.778;17.806;2023-02-28T17:37:47;5.30;80.70
47168;DHT22;32931;47.778;17.806;2023-02-28T17:40:18;5.30;80.90
47168;DHT22;32931;47.778;17.806;2023-02-28T17:42:45;5.20;81.20
47168;DHT22;32931;47.778;17.806;2023-02-28T17:45:13;5.10;81.30
47168;DHT22;32931;47.778;17.806;2023-02-28T17:47:40;5.00;81.60
47168;DHT22;32931;47.778;17.806;2023-02-28T17:50:14;4.90;82.00
47168;DHT22;32931;47.778;17.806;2023-02-28T17:52:41;4.90;82.20
47168;DHT22;32931;47.778;17.806;2023-02-28T17:55:09;4.80;82.20
47168;DHT22;32931;47.778;17.806;2023-02-28T17:57:35;4.70;82.40
47168;DHT22;32931;47.778;17.806;2023-02-28T18:00:02;4.60;82.60
47168;DHT22;32931;47.778;17.806;2023-02-28T18:02:32;4.60;82.80
47168;DHT22;32931;47.778;17.806;2023-02-28T18:04:58;4.50;82.90
47168;DHT22;32931;47.778;17.806;2023-02-28T18:07:25;4.50;83.30
47168;DHT22;32931;47.778;17.806;2023-02-28T18:09:51;4.50;83.60
47168;DHT22;32931;47.778;17.806;2023-02-28T18:12:17;4.40;83.70
47168;DHT22;32931;47.778;17.806;2023-02-28T18:14:43;4.30;84.00
47168;DHT22;32931;47.778;17.806;2023-02-28T18:17:11;4.20;84.30
47168;DHT22;32931;47.778;17.806;2023-02-28T18:19:41;4.20;84.50
47168;DHT22;32931;47.778;17.806;2023-02-28T18:22:07;4.20;84.80
47168;DHT22;32931;47.778;17.806;2023-02-28T18:24:34;4.20;84.90
47168;DHT22;32931;47.778;17.806;2023-02-28T18:27:01;4.20;85.10
47168;DHT22;32931;47.778;17.806;2023-02-28T18:29:28;4.10;85.30
47168;DHT22;32931;47.778;17.806;2023-02-28T18:31:55;4.10;85.40